createdAt,value
2022-12-25T00:00:21.151Z,3.93
2022-12-25T00:03:23.164Z,3.33
2022-12-25T00:06:24.920Z,3.67
2022-12-25T00:09:26.629Z,3.58
2022-12-25T00:12:28.311Z,3.97
2022-12-25T00:15:29.990Z,4.40
2022-12-25T00:18:31.620Z,4.77
2022-12-25T00:21:33.371Z,4.20
2022-12-25T00:24:35.112Z,4.10
2022-12-25T00:27:37.949Z,3.78
2022-12-25T00:30:41.014Z,3.60
2022-12-25T00:33:45.052Z,3.47
2022-12-25T00:36:46.671Z,3.67
2022-12-25T00:39:49.502Z,4.32
2022-12-25T00:42:51.308Z,3.75
2022-12-25T00:46:02.156Z,4.50
2022-12-25T00:49:03.985Z,3.70
2022-12-25T00:52:05.817Z,4.07
2022-12-25T00:55:07.728Z,4.60
2022-12-25T00:58:09.388Z,4.30
2022-12-25T01:01:11.901Z,4.53
2022-12-25T01:04:13.787Z,3.77
2022-12-25T01:07:16.957Z,4.13
2022-12-25T01:10:24.397Z,4.18
2022-12-25T01:13:27.488Z,3.58
2022-12-25T01:16:29.885Z,4.40
2022-12-25T01:19:31.653Z,3.53
2022-12-25T01:22:33.335Z,4.40
2022-12-25T01:25:35.055Z,4.53
2022-12-25T01:28:37.595Z,3.67
2022-12-25T01:31:39.300Z,3.80
2022-12-25T01:34:41.198Z,4.00
2022-12-25T01:37:42.897Z,3.95
2022-12-25T01:40:44.668Z,3.63
2022-12-25T01:44:04.720Z,3.95
2022-12-25T01:47:07.376Z,4.23
2022-12-25T01:50:09.509Z,3.77
2022-12-25T01:53:11.943Z,4.10
2022-12-25T01:56:13.679Z,3.80
2022-12-25T01:59:19.314Z,4.22
2022-12-25T02:02:21.453Z,4.27
2022-12-25T02:05:27.991Z,4.17
2022-12-25T02:08:30.387Z,4.03
2022-12-25T02:11:50.282Z,4.40
2022-12-25T02:14:59.648Z,4.60
2022-12-25T02:18:15.870Z,4.70
2022-12-25T02:21:29.817Z,4.03
2022-12-25T02:25:08.818Z,4.70
2022-12-25T02:28:36.437Z,4.30
2022-12-25T02:31:48.277Z,4.03
2022-12-25T02:35:03.693Z,4.00
2022-12-25T02:38:12.904Z,3.93
2022-12-25T02:41:16.562Z,4.20
2022-12-25T02:44:39.627Z,4.00
2022-12-25T02:47:59.859Z,3.38
2022-12-25T02:51:22.581Z,4.80
2022-12-25T02:54:52.358Z,4.77
2022-12-25T02:58:16.587Z,4.50
2022-12-25T03:01:39.386Z,4.10
2022-12-25T03:05:01.902Z,3.90
2022-12-25T03:08:08.733Z,4.20
2022-12-25T03:11:31.070Z,3.37
2022-12-25T03:14:51.526Z,3.22
2022-12-25T03:17:53.771Z,3.33
2022-12-25T03:21:14.584Z,3.90
2022-12-25T03:24:34.762Z,3.13
2022-12-25T03:27:37.742Z,3.70
2022-12-25T03:31:13.400Z,3.13
2022-12-25T03:34:49.612Z,3.65
2022-12-25T03:38:09.988Z,4.80
2022-12-25T03:41:59.507Z,3.53
2022-12-25T03:45:30.845Z,3.80
2022-12-25T03:48:54.239Z,3.55
2022-12-25T03:52:17.731Z,3.30
2022-12-25T03:55:38.640Z,3.33
2022-12-25T03:59:09.423Z,3.47
2022-12-25T04:02:29.846Z,4.50
2022-12-25T04:05:50.461Z,4.80
2022-12-25T04:09:10.854Z,6.00
2022-12-25T04:12:31.106Z,4.28
2022-12-25T04:15:51.395Z,3.53
2022-12-25T04:19:11.613Z,3.80
2022-12-25T04:22:31.915Z,3.47
2022-12-25T04:25:52.195Z,3.65
2022-12-25T04:29:12.555Z,3.80
2022-12-25T04:32:32.739Z,3.60
2022-12-25T04:35:53.012Z,3.57
2022-12-25T04:38:54.826Z,3.80
2022-12-25T04:41:56.783Z,4.55
2022-12-25T04:44:58.468Z,4.10
2022-12-25T04:48:00.809Z,4.40
2022-12-25T04:51:20.841Z,4.37
2022-12-25T04:54:22.560Z,3.88
2022-12-25T04:57:24.232Z,4.45
2022-12-25T05:00:25.955Z,3.92
2022-12-25T05:03:28.289Z,4.20
2022-12-25T05:06:30.102Z,4.90
2022-12-25T05:09:31.776Z,5.70
2022-12-25T05:12:33.524Z,6.35
2022-12-25T05:15:35.201Z,6.65
2022-12-25T05:18:36.922Z,6.30
2022-12-25T05:21:38.605Z,6.40
2022-12-25T05:24:40.337Z,6.60
2022-12-25T05:27:41.984Z,8.30
2022-12-25T05:30:43.717Z,7.40
2022-12-25T05:33:45.668Z,5.87
2022-12-25T05:36:47.328Z,7.73
2022-12-25T05:39:49.258Z,7.63
2022-12-25T05:42:54.000Z,6.68
2022-12-25T05:45:55.687Z,5.97
2022-12-25T05:48:57.377Z,6.87
2022-12-25T05:51:59.016Z,5.53
2022-12-25T05:55:00.849Z,5.65
2022-12-25T05:58:02.997Z,5.38
2022-12-25T06:01:14.807Z,5.40
2022-12-25T06:04:16.711Z,5.17
2022-12-25T06:07:18.471Z,5.10
2022-12-25T06:10:20.402Z,6.22
2022-12-25T06:13:22.068Z,7.22
2022-12-25T06:16:23.743Z,7.95
2022-12-25T06:19:25.492Z,7.47
2022-12-25T06:22:31.489Z,6.23
2022-12-25T06:25:33.396Z,5.22
2022-12-25T06:28:35.401Z,5.00
2022-12-25T06:31:37.110Z,6.28
2022-12-25T06:34:38.787Z,6.53
2022-12-25T06:37:40.410Z,12.97
2022-12-25T06:40:42.091Z,16.63
2022-12-25T06:43:47.494Z,10.95
2022-12-25T06:46:49.229Z,9.90
2022-12-25T06:49:50.848Z,10.83
2022-12-25T06:52:52.467Z,9.67
2022-12-25T06:55:54.107Z,13.10
2022-12-25T06:58:58.540Z,10.18
2022-12-25T07:02:00.422Z,6.85
2022-12-25T07:05:04.009Z,5.93
2022-12-25T07:08:05.743Z,5.80
2022-12-25T07:11:07.859Z,5.93
2022-12-25T07:14:23.256Z,5.95
2022-12-25T07:17:25.679Z,5.60
2022-12-25T07:20:27.615Z,6.70
2022-12-25T07:23:29.309Z,6.20
2022-12-25T07:26:31.236Z,5.35
2022-12-25T07:29:32.896Z,5.82
2022-12-25T07:32:34.557Z,5.28
2022-12-25T07:35:37.191Z,6.23
2022-12-25T07:38:38.908Z,8.87
2022-12-25T07:41:40.617Z,7.53
2022-12-25T07:44:42.354Z,6.75
2022-12-25T07:47:44.437Z,6.90
2022-12-25T07:50:46.125Z,7.30
2022-12-25T07:53:47.952Z,12.67
2022-12-25T07:56:53.386Z,16.17
2022-12-25T07:59:55.712Z,18.50
2022-12-25T08:02:57.449Z,20.60
2022-12-25T08:06:06.082Z,23.47
2022-12-25T08:09:11.191Z,27.83
2022-12-25T08:12:13.129Z,23.38
2022-12-25T08:15:14.940Z,20.20
2022-12-25T08:18:16.638Z,15.95
2022-12-25T08:21:18.265Z,20.60
2022-12-25T08:24:20.049Z,21.47
2022-12-25T08:27:21.744Z,7.75
2022-12-25T08:30:23.418Z,6.80
2022-12-25T08:33:25.428Z,5.95
2022-12-25T08:36:27.504Z,5.87
2022-12-25T08:39:29.264Z,6.93
2022-12-25T08:42:30.973Z,9.70
2022-12-25T08:45:35.253Z,26.90
2022-12-25T08:48:37.639Z,29.52
2022-12-25T08:51:39.349Z,34.20
2022-12-25T08:54:41.073Z,24.30
2022-12-25T08:57:43.023Z,14.40
2022-12-25T09:00:44.665Z,10.82
2022-12-25T09:03:46.561Z,8.45
2022-12-25T09:06:48.396Z,9.10
2022-12-25T09:09:50.053Z,9.90
2022-12-25T09:12:51.857Z,9.68
2022-12-25T09:15:53.545Z,9.57
2022-12-25T09:18:56.831Z,9.55
2022-12-25T09:21:58.663Z,17.53
2022-12-25T09:25:00.498Z,10.70
2022-12-25T09:28:02.199Z,10.48
2022-12-25T09:31:04.415Z,8.13
2022-12-25T09:34:06.483Z,8.13
2022-12-25T09:37:08.133Z,6.47
2022-12-25T09:40:18.673Z,8.97
2022-12-25T09:43:21.705Z,6.25
2022-12-25T09:46:33.078Z,7.80
2022-12-25T09:49:54.316Z,8.35
2022-12-25T09:53:03.105Z,6.93
2022-12-25T09:56:11.465Z,10.40
2022-12-25T09:59:24.197Z,10.98
2022-12-25T10:02:41.122Z,6.43
2022-12-25T10:06:20.762Z,6.95
2022-12-25T10:09:44.225Z,5.80
2022-12-25T10:13:03.998Z,10.13
2022-12-25T10:16:21.507Z,6.00
2022-12-25T10:19:28.142Z,5.95
2022-12-25T10:22:29.766Z,5.70
2022-12-25T10:25:32.492Z,6.27
2022-12-25T10:28:42.781Z,5.93
2022-12-25T10:31:46.682Z,5.47
2022-12-25T10:34:48.929Z,6.13
2022-12-25T10:38:17.809Z,5.28
2022-12-25T10:41:53.442Z,6.80
2022-12-25T10:44:59.299Z,4.90
2022-12-25T10:48:07.767Z,3.67
2022-12-25T10:51:09.984Z,3.70
2022-12-25T10:54:21.404Z,4.10
2022-12-25T10:57:25.455Z,4.20
2022-12-25T11:00:30.263Z,3.50
2022-12-25T11:03:35.155Z,3.35
2022-12-25T11:06:36.963Z,3.83
2022-12-25T11:09:39.700Z,3.85
2022-12-25T11:12:44.724Z,3.10
2022-12-25T11:15:49.239Z,2.50
2022-12-25T11:18:54.213Z,2.75
2022-12-25T11:21:58.421Z,2.67
2022-12-25T11:25:12.382Z,3.50
2022-12-25T11:28:14.176Z,3.50
2022-12-25T11:31:43.303Z,2.93
2022-12-25T11:34:47.508Z,2.88
2022-12-25T11:37:51.974Z,3.25
2022-12-25T11:41:00.606Z,3.50
2022-12-25T11:44:08.106Z,2.87
2022-12-25T11:47:29.236Z,2.13
2022-12-25T11:50:35.514Z,2.50
2022-12-25T11:53:51.679Z,5.07
2022-12-25T11:56:55.904Z,3.30
2022-12-25T12:00:04.283Z,3.50
2022-12-25T12:03:12.061Z,3.50
2022-12-25T12:06:23.223Z,3.80
2022-12-25T12:09:36.708Z,4.57
2022-12-25T12:12:51.202Z,5.05
2022-12-25T12:15:53.005Z,5.90
2022-12-25T12:18:55.998Z,6.10
2022-12-25T12:22:01.125Z,8.85
2022-12-25T12:25:06.782Z,5.68
2022-12-25T12:28:26.545Z,6.07
2022-12-25T12:31:42.819Z,7.10
2022-12-25T12:34:50.122Z,6.13
2022-12-25T12:38:02.785Z,5.00
2022-12-25T12:41:07.210Z,3.90
2022-12-25T12:44:12.441Z,4.13
2022-12-25T12:47:48.135Z,4.13
2022-12-25T12:50:49.812Z,3.70
2022-12-25T12:53:51.590Z,3.70
2022-12-25T12:57:06.228Z,4.57
2022-12-25T13:00:17.996Z,3.70
2022-12-25T13:03:40.838Z,4.47
2022-12-25T13:06:54.283Z,3.80
2022-12-25T13:09:58.677Z,4.18
2022-12-25T13:13:05.029Z,4.63
2022-12-25T13:16:13.040Z,3.93
2022-12-25T13:19:19.427Z,4.75
2022-12-25T13:22:30.109Z,4.43
2022-12-25T13:25:32.018Z,4.18
2022-12-25T13:28:36.265Z,4.45
2022-12-25T13:31:41.116Z,3.83
2022-12-25T13:34:43.144Z,4.30
2022-12-25T13:37:45.506Z,4.00
2022-12-25T13:41:11.400Z,4.03
2022-12-25T13:44:29.964Z,3.60
2022-12-25T13:47:34.134Z,4.17
2022-12-25T13:50:36.310Z,4.40
2022-12-25T13:53:37.936Z,4.60
2022-12-25T13:56:51.741Z,5.35
2022-12-25T13:59:53.887Z,6.80
2022-12-25T14:02:55.721Z,5.73
2022-12-25T14:05:59.969Z,5.63
2022-12-25T14:09:02.069Z,6.28
2022-12-25T14:12:04.113Z,7.03
2022-12-25T14:15:06.877Z,7.05
2022-12-25T14:18:15.243Z,8.43
2022-12-25T14:21:34.937Z,7.13
2022-12-25T14:24:38.132Z,6.43
2022-12-25T14:27:39.879Z,6.10
2022-12-25T14:30:42.734Z,8.60
2022-12-25T14:33:45.709Z,7.10
2022-12-25T14:36:48.376Z,8.68
2022-12-25T14:39:59.898Z,7.63
2022-12-25T14:43:06.551Z,7.82
2022-12-25T14:46:08.987Z,8.32
2022-12-25T14:49:25.010Z,8.83
2022-12-25T14:52:52.822Z,8.60
2022-12-25T14:55:55.258Z,9.00
2022-12-25T14:58:59.680Z,8.43
2022-12-25T15:02:01.601Z,10.48
2022-12-25T15:05:03.577Z,9.63
2022-12-25T15:08:25.527Z,6.95
2022-12-25T15:11:28.281Z,6.00
2022-12-25T15:14:31.485Z,6.07
2022-12-25T15:17:36.184Z,7.20
2022-12-25T15:20:37.914Z,6.43
2022-12-25T15:23:39.691Z,17.52
2022-12-25T15:26:41.943Z,14.02
2022-12-25T15:30:09.097Z,19.30
2022-12-25T15:33:17.046Z,19.45
2022-12-25T15:36:18.923Z,21.70
2022-12-25T15:39:20.563Z,12.18
2022-12-25T15:42:25.276Z,12.02
2022-12-25T15:45:29.173Z,10.82
2022-12-25T15:48:30.853Z,10.35
2022-12-25T15:51:33.356Z,10.57
2022-12-25T15:54:35.416Z,11.07
2022-12-25T15:57:39.191Z,14.00
2022-12-25T16:00:40.860Z,12.55
2022-12-25T16:03:43.321Z,14.60
2022-12-25T16:06:45.484Z,16.50
2022-12-25T16:09:47.428Z,22.45
2022-12-25T16:12:49.100Z,21.25
2022-12-25T16:15:50.767Z,18.23
2022-12-25T16:18:52.468Z,24.20
2022-12-25T16:21:54.493Z,33.77
2022-12-25T16:24:57.044Z,36.05
2022-12-25T16:27:58.769Z,30.05
2022-12-25T16:31:00.705Z,20.48
2022-12-25T16:34:03.112Z,15.73
2022-12-25T16:37:05.374Z,19.40
2022-12-25T16:40:09.606Z,20.70
2022-12-25T16:43:11.361Z,22.70
2022-12-25T16:46:15.644Z,18.67
2022-12-25T16:49:17.320Z,18.17
2022-12-25T16:52:18.971Z,19.80
2022-12-25T16:55:26.319Z,18.33
2022-12-25T16:58:31.782Z,26.27
2022-12-25T17:01:33.645Z,36.33
2022-12-25T17:04:35.466Z,31.38
2022-12-25T17:07:37.666Z,29.90
2022-12-25T17:10:39.431Z,26.38
2022-12-25T17:13:41.153Z,26.40
2022-12-25T17:16:42.868Z,24.38
2022-12-25T17:19:44.613Z,24.67
2022-12-25T17:22:48.899Z,24.10
2022-12-25T17:25:50.599Z,23.88
2022-12-25T17:28:56.236Z,21.58
2022-12-25T17:31:58.000Z,19.48
2022-12-25T17:34:59.707Z,19.40
2022-12-25T17:38:01.367Z,18.90
2022-12-25T17:41:06.291Z,18.38
2022-12-25T17:44:11.913Z,17.58
2022-12-25T17:47:13.563Z,16.60
2022-12-25T17:50:15.309Z,17.23
2022-12-25T17:53:17.008Z,20.93
2022-12-25T17:56:19.817Z,19.33
2022-12-25T17:59:28.273Z,24.02
2022-12-25T18:02:30.894Z,20.98
2022-12-25T18:05:36.287Z,22.23
2022-12-25T18:08:39.860Z,20.23
2022-12-25T18:11:43.338Z,20.45
2022-12-25T18:14:45.044Z,20.17
2022-12-25T18:17:46.738Z,19.75
2022-12-25T18:20:48.416Z,20.08
2022-12-25T18:23:50.826Z,18.83
2022-12-25T18:26:52.594Z,18.23
2022-12-25T18:29:54.294Z,20.15
2022-12-25T18:32:55.989Z,23.63
2022-12-25T18:35:59.624Z,19.77
2022-12-25T18:39:03.241Z,19.37
2022-12-25T18:42:23.683Z,19.98
2022-12-25T18:45:25.449Z,21.08
2022-12-25T18:48:27.425Z,17.33
2022-12-25T18:51:34.960Z,18.08
2022-12-25T18:54:38.657Z,18.53
2022-12-25T18:57:40.896Z,17.13
2022-12-25T19:00:42.565Z,20.85
2022-12-25T19:03:45.794Z,21.48
2022-12-25T19:06:49.252Z,19.05
2022-12-25T19:09:52.199Z,17.47
2022-12-25T19:12:54.036Z,17.27
2022-12-25T19:15:58.945Z,17.15
2022-12-25T19:19:01.415Z,17.63
2022-12-25T19:22:03.241Z,18.27
2022-12-25T19:25:05.464Z,21.40
2022-12-25T19:28:07.136Z,19.90
2022-12-25T19:31:09.755Z,19.05
2022-12-25T19:34:11.708Z,18.83
2022-12-25T19:37:15.041Z,18.35
2022-12-25T19:40:16.923Z,19.37
2022-12-25T19:43:19.025Z,19.08
2022-12-25T19:46:26.029Z,20.67
2022-12-25T19:49:28.025Z,18.77
2022-12-25T19:52:29.716Z,20.48
2022-12-25T19:55:32.304Z,20.80
2022-12-25T19:58:34.065Z,21.75
2022-12-25T20:01:35.858Z,20.85
2022-12-25T20:04:37.634Z,20.75
2022-12-25T20:07:39.390Z,21.05
2022-12-25T20:10:44.706Z,20.60
2022-12-25T20:13:46.500Z,20.83
2022-12-25T20:16:48.360Z,21.60
2022-12-25T20:19:50.067Z,21.25
2022-12-25T20:22:51.888Z,20.08
2022-12-25T20:25:54.069Z,21.27
2022-12-25T20:28:56.570Z,20.52
2022-12-25T20:31:58.306Z,21.50
2022-12-25T20:35:00.108Z,21.35
2022-12-25T20:38:02.066Z,20.88
2022-12-25T20:44:28.900Z,21.50
2022-12-25T20:47:30.622Z,21.55
2022-12-25T20:50:32.330Z,21.40
2022-12-25T20:53:34.625Z,21.67
2022-12-25T20:56:37.712Z,21.57
2022-12-25T20:59:40.233Z,22.92
2022-12-25T21:02:43.201Z,22.35
2022-12-25T21:05:54.872Z,23.15
2022-12-25T21:08:56.889Z,22.58
2022-12-25T21:11:58.659Z,22.23
2022-12-25T21:15:00.746Z,22.42
2022-12-25T21:18:03.725Z,22.42
2022-12-25T21:21:07.453Z,23.52
2022-12-25T21:24:10.148Z,22.38
2022-12-25T21:27:12.551Z,22.10
2022-12-25T21:30:16.001Z,22.52
2022-12-25T21:33:36.270Z,23.15
2022-12-25T21:36:37.956Z,22.33
2022-12-25T21:39:39.717Z,21.90
2022-12-25T21:42:41.392Z,23.03
2022-12-25T21:45:43.144Z,21.33
2022-12-25T21:48:44.959Z,24.95
2022-12-25T21:52:05.262Z,24.23
2022-12-25T21:55:07.399Z,23.13
2022-12-25T21:58:09.061Z,22.53
2022-12-25T22:01:11.664Z,22.80
2022-12-25T22:04:15.492Z,23.20
2022-12-25T22:07:17.333Z,22.80
2022-12-25T22:10:19.059Z,22.50
2022-12-25T22:13:39.272Z,23.00
2022-12-25T22:17:00.006Z,23.52
2022-12-25T22:20:01.893Z,22.95
2022-12-25T22:23:08.078Z,21.50
2022-12-25T22:26:09.794Z,22.92
2022-12-25T22:29:11.488Z,21.20
2022-12-25T22:32:14.509Z,21.90
2022-12-25T22:35:16.716Z,20.83
2022-12-25T22:38:18.410Z,18.48
2022-12-25T22:41:20.048Z,18.27
2022-12-25T22:44:23.592Z,17.93
2022-12-25T22:47:25.297Z,16.58
2022-12-25T22:50:26.955Z,17.52
2022-12-25T22:53:28.592Z,16.58
2022-12-25T22:56:30.317Z,15.32
2022-12-25T22:59:32.918Z,15.97
2022-12-25T23:02:35.280Z,15.80
2022-12-25T23:05:37.106Z,14.70
2022-12-25T23:08:39.052Z,15.45
2022-12-25T23:11:41.008Z,17.27
2022-12-25T23:14:42.692Z,17.67
2022-12-25T23:18:03.271Z,18.35
2022-12-25T23:21:23.481Z,17.92
2022-12-25T23:24:43.703Z,18.45
2022-12-25T23:27:45.967Z,18.48
2022-12-25T23:30:47.632Z,18.50
2022-12-25T23:33:49.345Z,19.55
2022-12-25T23:36:51.019Z,18.42
2022-12-25T23:39:53.026Z,17.65
2022-12-25T23:42:54.697Z,17.85
2022-12-25T23:45:56.375Z,17.23
2022-12-25T23:48:58.150Z,18.35
2022-12-25T23:52:00.104Z,18.90
2022-12-25T23:55:01.810Z,18.38
2022-12-25T23:58:03.972Z,17.05
